Time;durP1;ratioP1;P1;durP2;ratioP2;P2;SDS_P1;SDS_P2;PMS_P1;PMS_P2;Temp;Humidity;BMP_temperature;BMP_pressure;BME280_temperature;BME280_humidity;BME280_pressure;Samples;Min_cycle;Max_cycle;Signal;HPM_P1;HPM_P2
2023/05/20 00:09:39;;;;;;;4.53;3.30;;;7.70;99.90;;;;;;25967601;22;20000;-46
2023/05/20 00:19:40;;;;;;;5.80;3.60;;;7.90;99.90;;;;;;25967436;22;20004;-50
2023/05/20 00:29:42;;;;;;;7.55;3.63;;;7.80;99.90;;;;;;25967540;22;20512;-57
2023/05/20 00:39:43;;;;;;;5.95;3.50;;;7.80;99.90;;;;;;25967862;22;20536;-48
2023/05/20 00:49:46;;;;;;;6.13;3.30;;;7.80;99.90;;;;;;25938969;22;20034;-46
2023/05/20 00:59:48;;;;;;;4.57;3.30;;;7.90;99.90;;;;;;25966191;22;20008;-58
2023/05/20 01:09:51;;;;;;;7.00;4.10;;;7.80;99.90;;;;;;25965544;22;20003;-58
2023/05/20 01:19:55;;;;;;;5.28;3.67;;;7.80;99.90;;;;;;25964954;22;20019;-57
2023/05/20 01:29:56;;;;;;;5.10;3.80;;;7.70;99.90;;;;;;25964955;22;20018;-51
2023/05/20 01:39:59;;;;;;;6.40;3.50;;;7.80;99.90;;;;;;25962523;22;20500;-47
2023/05/20 01:50:01;;;;;;;5.70;3.58;;;7.80;99.90;;;;;;25937126;22;20390;-59
2023/05/20 02:00:05;;;;;;;4.20;3.00;;;7.80;99.90;;;;;;25938277;22;20011;-58
2023/05/20 02:10:15;;;;;;;4.15;3.08;;;7.80;99.90;;;;;;26005958;22;20004;-51
2023/05/20 02:20:16;;;;;;;6.68;3.65;;;7.80;99.90;;;;;;25963602;22;20058;-51
2023/05/20 02:30:18;;;;;;;4.47;2.97;;;7.80;99.90;;;;;;25963626;22;19999;-48
2023/05/20 02:40:20;;;;;;;4.65;2.97;;;7.80;99.90;;;;;;25970984;22;20008;-58
2023/05/20 02:50:22;;;;;;;6.25;3.33;;;7.80;99.90;;;;;;25944074;22;20011;-48
2023/05/20 03:00:23;;;;;;;5.35;3.50;;;7.90;99.90;;;;;;25971324;22;20012;-51
2023/05/20 03:10:25;;;;;;;5.13;2.97;;;7.90;99.90;;;;;;25943239;22;20447;-51
2023/05/20 03:20:28;;;;;;;4.82;3.13;;;8.00;99.90;;;;;;25970112;22;20077;-48
2023/05/20 03:30:30;;;;;;;6.07;3.97;;;8.00;99.90;;;;;;25942594;22;20003;-49
2023/05/20 03:40:33;;;;;;;6.85;4.10;;;8.00;99.90;;;;;;25939537;22;20004;-50
2023/05/20 03:50:34;;;;;;;8.20;4.25;;;7.90;99.90;;;;;;25968425;22;20008;-48
2023/05/20 04:00:36;;;;;;;6.00;4.25;;;7.80;99.90;;;;;;25968671;22;20061;-48
2023/05/20 04:10:41;;;;;;;8.48;4.70;;;7.80;99.90;;;;;;25940768;22;20320;-50
2023/05/20 04:20:43;;;;;;;7.57;3.83;;;7.80;99.90;;;;;;25967375;22;20066;-49
2023/05/20 04:30:57;;;;;;;6.97;4.47;;;7.80;99.90;;;;;;25967189;22;20024;-49
2023/05/20 04:41:00;;;;;;;;;;;7.80;99.90;;;;;;25959031;22;20004;-58
2023/05/20 04:51:02;;;;;;;7.68;3.70;;;7.80;99.90;;;;;;25939125;22;19915;-59
2023/05/20 05:01:06;;;;;;;5.40;3.28;;;7.90;99.90;;;;;;25967354;22;20007;-45
2023/05/20 05:11:08;;;;;;;5.78;4.13;;;7.90;99.90;;;;;;25965672;22;20030;-58
2023/05/20 05:21:10;;;;;;;6.15;3.75;;;8.00;99.90;;;;;;25913129;22;20030;-59
2023/05/20 05:31:12;;;;;;;5.05;3.50;;;8.20;99.90;;;;;;25937918;22;20000;-58
2023/05/20 05:41:14;;;;;;;4.25;3.60;;;8.40;99.90;;;;;;25937487;22;20303;-50
2023/05/20 05:51:17;;;;;;;6.40;3.50;;;8.50;99.90;;;;;;25964173;22;20027;-52
2023/05/20 06:01:20;;;;;;;4.03;3.40;;;8.70;99.90;;;;;;25937444;22;20004;-51
2023/05/20 06:11:22;;;;;;;4.70;3.17;;;8.80;99.90;;;;;;25967937;22;20003;-47
2023/05/20 06:21:27;;;;;;;5.53;2.83;;;8.90;99.90;;;;;;25945340;22;20084;-58
2023/05/20 06:31:29;;;;;;;6.68;3.17;;;9.10;99.90;;;;;;25971082;22;20272;-49
2023/05/20 06:41:31;;;;;;;4.53;3.40;;;9.30;99.90;;;;;;25971609;22;20007;-49
2023/05/20 06:51:32;;;;;;;6.45;2.80;;;9.30;99.90;;;;;;25944052;22;20012;-57
2023/05/20 07:01:35;;;;;;;2.90;2.17;;;9.30;99.90;;;;;;25943648;22;20439;-47
2023/05/20 07:11:38;;;;;;;4.18;2.30;;;9.30;99.90;;;;;;25943834;22;20008;-51
2023/05/20 07:21:40;;;;;;;3.97;2.42;;;9.30;99.90;;;;;;25943071;22;20077;-48
2023/05/20 07:32:04;;;;;;;2.72;2.30;;;9.30;99.90;;;;;;26011856;22;20000;-48
2023/05/20 07:42:06;;;;;;;4.60;2.35;;;9.30;99.90;;;;;;25968081;22;20054;-51
2023/05/20 07:52:08;;;;;;;4.00;2.70;;;9.60;99.90;;;;;;25916137;22;20359;-58
2023/05/20 08:02:10;;;;;;;3.97;2.60;;;9.70;99.90;;;;;;25968532;22;20007;-50
2023/05/20 08:12:12;;;;;;;4.25;2.78;;;9.70;99.90;;;;;;25940735;22;20125;-51
2023/05/20 08:22:15;;;;;;;5.63;3.20;;;9.80;99.90;;;;;;25940691;22;20065;-50
2023/05/20 08:32:17;;;;;;;3.67;2.97;;;9.90;99.90;;;;;;25966526;22;20378;-52
2023/05/20 08:42:24;;;;;;;8.43;3.45;;;9.90;99.90;;;;;;25968795;22;20000;-57
2023/05/20 08:52:33;;;;;;;3.65;3.08;;;10.10;99.90;;;;;;25943954;22;20019;-47
2023/05/20 09:02:38;;;;;;;5.43;3.30;;;10.20;99.90;;;;;;26008406;22;20073;-57
2023/05/20 09:12:40;;;;;;;4.60;3.25;;;10.10;99.90;;;;;;25964278;22;20034;-46
2023/05/20 09:22:42;;;;;;;4.65;3.42;;;10.00;99.90;;;;;;25965277;22;20000;-48
2023/05/20 09:32:43;;;;;;;4.80;3.10;;;9.90;99.90;;;;;;25964609;22;20000;-46
2023/05/20 09:43:03;;;;;;;5.50;3.60;;;10.00;99.90;;;;;;25964152;22;19999;-58
2023/05/20 09:53:05;;;;;;;5.38;4.10;;;9.90;99.90;;;;;;25966506;22;20007;-47
2023/05/20 10:03:07;;;;;;;5.05;3.75;;;9.70;99.90;;;;;;25963837;22;20003;-58
2023/05/20 10:13:38;;;;;;;5.50;4.10;;;9.70;99.90;;;;;;25963073;22;20004;-48
2023/05/20 10:23:39;;;;;;;4.63;3.58;;;10.00;99.90;;;;;;25939275;22;20007;-49
2023/05/20 10:33:45;;;;;;;5.72;4.10;;;10.20;99.90;;;;;;25963551;22;20003;-58
2023/05/20 10:44:03;;;;;;;5.95;4.20;;;10.30;99.90;;;;;;25963302;22;20010;-49
2023/05/20 10:54:04;;;;;;;8.75;3.97;;;10.60;99.90;;;;;;26007161;22;20227;-49
2023/05/20 11:04:07;;;;;;;6.10;3.90;;;10.70;99.90;;;;;;25970854;22;20016;-58
2023/05/20 11:14:13;;;;;;;5.57;4.35;;;10.70;99.90;;;;;;25970435;22;20004;-47
2023/05/20 11:24:24;;;;;;;5.60;4.70;;;10.80;99.90;;;;;;26012332;22;20008;-50
2023/05/20 11:34:36;;;;;;;6.45;5.00;;;10.70;99.90;;;;;;26011855;22;20004;-58
2023/05/20 11:44:44;;;;;;;8.05;5.80;;;10.60;99.90;;;;;;26007144;22;20015;-50
2023/05/20 11:54:51;;;;;;;7.90;6.32;;;10.40;99.90;;;;;;26011305;22;20011;-56
2023/05/20 12:04:53;;;;;;;7.05;5.53;;;10.20;99.90;;;;;;26010241;22;20007;-49
2023/05/20 12:14:54;;;;;;;7.50;5.88;;;10.20;99.90;;;;;;25966887;22;20004;-58
2023/05/20 12:24:56;;;;;;;6.03;4.88;;;10.20;99.90;;;;;;25940629;22;20315;-58
2023/05/20 12:34:58;;;;;;;7.00;5.32;;;10.10;99.90;;;;;;25967170;22;20064;-50
2023/05/20 12:44:59;;;;;;;5.03;3.72;;;10.20;99.90;;;;;;25969155;22;20054;-58
2023/05/20 12:55:02;;;;;;;5.90;3.80;;;10.10;99.90;;;;;;25966297;22;20053;-57
2023/05/20 13:05:04;;;;;;;6.75;4.50;;;10.30;99.90;;;;;;25965522;22;20058;-58
2023/05/20 13:15:06;;;;;;;6.65;4.90;;;10.40;99.90;;;;;;25964753;22;20003;-50
2023/05/20 13:25:08;;;;;;;7.30;5.47;;;10.40;99.90;;;;;;25964866;22;20004;-57
2023/05/20 13:35:11;;;;;;;7.05;5.07;;;10.50;99.90;;;;;;25964514;22;20004;-50
2023/05/20 13:45:13;;;;;;;6.40;5.00;;;10.60;99.90;;;;;;25964499;22;20008;-58
2023/05/20 13:55:15;;;;;;;8.88;5.90;;;10.40;99.90;;;;;;25964515;22;20003;-47
2023/05/20 14:05:17;;;;;;;7.18;5.93;;;10.10;99.90;;;;;;25962808;22;20000;-47
2023/05/20 14:15:19;;;;;;;10.57;6.50;;;10.10;99.90;;;;;;25964540;22;20003;-56
2023/05/20 14:25:21;;;;;;;9.38;7.03;;;10.10;99.90;;;;;;25963809;22;20000;-59
2023/05/20 14:35:23;;;;;;;8.13;6.35;;;10.00;99.90;;;;;;25970619;22;20327;-50
2023/05/20 14:45:25;;;;;;;9.38;6.40;;;10.00;99.90;;;;;;25971616;22;20007;-58
2023/05/20 14:55:26;;;;;;;9.57;7.28;;;10.00;99.90;;;;;;25971353;22;20003;-50
2023/05/20 15:05:28;;;;;;;10.52;7.20;;;10.00;99.90;;;;;;25970602;22;20008;-51
2023/05/20 15:15:30;;;;;;;9.13;6.97;;;9.90;99.90;;;;;;25943482;22;20011;-50
2023/05/20 15:25:31;;;;;;;11.95;8.25;;;9.80;99.90;;;;;;25969925;22;20090;-59
2023/05/20 15:35:33;;;;;;;9.68;7.38;;;9.70;99.90;;;;;;25968872;22;20007;-59
2023/05/20 15:45:34;;;;;;;12.35;8.05;;;9.60;99.90;;;;;;25969136;22;20117;-49
2023/05/20 15:55:36;;;;;;;13.60;8.20;;;9.60;99.90;;;;;;25969410;22;20003;-47
2023/05/20 16:05:37;;;;;;;10.40;7.28;;;9.60;99.90;;;;;;25969072;22;20448;-45
2023/05/20 16:15:39;;;;;;;12.52;8.23;;;9.60;99.90;;;;;;25968311;22;20015;-48
2023/05/20 16:25:41;;;;;;;11.98;8.63;;;9.60;99.90;;;;;;25967745;22;20276;-60
2023/05/20 16:35:42;;;;;;;13.85;10.25;;;9.50;99.90;;;;;;25967114;22;20004;-59
2023/05/20 16:45:44;;;;;;;14.65;10.43;;;9.40;99.90;;;;;;25965796;22;20492;-47
2023/05/20 16:55:46;;;;;;;15.77;11.65;;;9.40;99.90;;;;;;25965929;22;20038;-50
2023/05/20 17:05:47;;;;;;;18.50;11.35;;;9.50;99.90;;;;;;25966038;22;20004;-58
2023/05/20 17:15:49;;;;;;;16.13;11.95;;;9.50;99.90;;;;;;25965916;22;20018;-49
2023/05/20 17:25:51;;;;;;;16.75;11.95;;;9.50;99.90;;;;;;25965271;22;20432;-50
2023/05/20 17:35:53;;;;;;;16.33;11.38;;;9.50;99.90;;;;;;25964927;22;20332;-47
2023/05/20 17:45:54;;;;;;;16.73;12.18;;;9.50;99.90;;;;;;25965044;22;20382;-58
2023/05/20 17:55:56;;;;;;;19.20;13.07;;;9.50;99.90;;;;;;25964390;22;20007;-58
2023/05/20 18:05:58;;;;;;;17.15;11.38;;;9.50;99.90;;;;;;25963704;22;20331;-58
2023/05/20 18:16:00;;;;;;;14.38;11.18;;;9.50;99.90;;;;;;25964264;22;20054;-50
2023/05/20 18:26:05;;;;;;;16.35;11.45;;;9.70;99.90;;;;;;25963524;22;20003;-47
2023/05/20 18:36:07;;;;;;;13.00;9.23;;;9.60;99.90;;;;;;26005126;22;20035;-48
2023/05/20 18:46:09;;;;;;;15.90;11.18;;;9.80;99.90;;;;;;25962614;22;20453;-58
2023/05/20 18:56:11;;;;;;;13.23;9.90;;;9.70;99.90;;;;;;25962846;22;20049;-49
2023/05/20 19:06:15;;;;;;;11.73;9.25;;;9.70;99.90;;;;;;25961490;22;20003;-58
2023/05/20 19:16:17;;;;;;;12.60;9.52;;;9.60;99.90;;;;;;25964441;22;20007;-46
2023/05/20 19:26:18;;;;;;;13.98;10.02;;;9.50;99.90;;;;;;25969544;22;20004;-58
2023/05/20 19:36:20;;;;;;;14.43;11.25;;;9.50;99.90;;;;;;25968572;22;20004;-58
2023/05/20 19:46:22;;;;;;;16.08;12.10;;;9.40;99.90;;;;;;25968513;22;20016;-58
2023/05/20 19:56:24;;;;;;;14.05;11.35;;;9.30;99.90;;;;;;25968620;22;20097;-48
2023/05/20 20:06:26;;;;;;;14.43;9.82;;;9.30;99.90;;;;;;25968275;22;20034;-49
2023/05/20 20:16:29;;;;;;;12.93;9.00;;;9.30;99.90;;;;;;25967395;22;20004;-57
2023/05/20 20:26:33;;;;;;;9.88;7.28;;;9.40;99.90;;;;;;25966579;22;20003;-49
2023/05/20 20:36:35;;;;;;;10.85;7.63;;;9.30;99.90;;;;;;25966967;22;20510;-49
2023/05/20 20:46:36;;;;;;;13.10;9.30;;;9.30;99.90;;;;;;25965927;22;20050;-49
2023/05/20 20:56:38;;;;;;;14.35;10.43;;;9.30;99.90;;;;;;25966305;22;20007;-58
2023/05/20 21:06:46;;;;;;;12.57;9.45;;;9.30;99.90;;;;;;25965472;22;19999;-45
2023/05/20 21:16:48;;;;;;;12.93;9.38;;;9.40;99.90;;;;;;25964886;22;20488;-48
2023/05/20 21:26:50;;;;;;;14.65;9.63;;;9.40;99.90;;;;;;25963733;22;20087;-51
2023/05/20 21:36:51;;;;;;;12.45;9.90;;;9.40;99.90;;;;;;25964683;22;20008;-57
2023/05/20 21:46:53;;;;;;;13.63;10.32;;;9.40;99.90;;;;;;25936743;22;20320;-57
2023/05/20 21:56:55;;;;;;;14.43;11.23;;;9.50;99.90;;;;;;25936502;22;20008;-48
2023/05/20 22:06:57;;;;;;;15.15;12.15;;;9.40;99.90;;;;;;25964040;22;20007;-56
2023/05/20 22:16:58;;;;;;;15.40;11.88;;;9.40;99.90;;;;;;25963812;22;20004;-50
2023/05/20 22:27:00;;;;;;;17.13;13.90;;;9.60;99.90;;;;;;25964158;22;20026;-55
2023/05/20 22:37:03;;;;;;;17.30;13.60;;;9.40;99.90;;;;;;25936379;22;20004;-56
2023/05/20 22:47:04;;;;;;;15.82;11.23;;;9.50;99.90;;;;;;25963160;22;20007;-56
2023/05/20 22:57:06;;;;;;;17.48;11.43;;;9.60;99.90;;;;;;25943440;22;20019;-56
2023/05/20 23:07:08;;;;;;;14.18;10.90;;;9.50;99.90;;;;;;25971075;22;20004;-49
2023/05/20 23:17:13;;;;;;;14.35;10.68;;;9.50;99.90;;;;;;25970255;22;20003;-50
2023/05/20 23:27:14;;;;;;;14.13;11.63;;;9.60;99.90;;;;;;25970063;22;20007;-49
2023/05/20 23:37:16;;;;;;;15.50;11.32;;;9.50;99.90;;;;;;25970022;22;20015;-56
2023/05/20 23:47:18;;;;;;;13.20;10.70;;;9.60;99.90;;;;;;25969004;22;20520;-57
2023/05/20 23:57:20;;;;;;;15.27;11.45;;;9.80;99.90;;;;;;25968848;22;20319;-57
